Airfield :
LOGIN :

Register | Disclaimer

   EN    FR    IT 

 










Legend :    VFR   Marginal VFR   IFR   Intensive IFR   Very Intensive IFR
Visi :
Ceiling :
>= 8 km
>= 3000ft
5 to 8 km
1000 to 3000 ft
1500m to 5 km
500 to 1000 ft
800 to 1500m
200 to 500 ft
< 800m
< 200 ft
Symbols :   Thunderstorms  Fog  Heavy snow  Heavy precipitations  Wind > 20 kt
SIGMETs :     Misc.  Thunderstorms  Icing  Turbulence  Mountain Waves  Volcanic Ashes






- Airport Elevation : 336 ft
- IATA code : GCI


EGJB - Guernsey

CURRENT METAR :
  • 162150Z 33003KT 9999 FEW012 BKN040 07/06 Q1008

EXPIRED METARs :
  • 162050Z 07004KT 9999 VCSH FEW012 06/05 Q1008
  • 162020Z 03003KT 9999 VCSH FEW012 SCT030 07/05 Q1008
  • 161950Z 02004KT 9999 VCSH FEW010 BKN030 07/06 Q1008
  • 161920Z 36005KT 9999 VCSH FEW010 BKN030 07/06 Q1008

TAF TAF EGJB
Valid from the 16 at 21:00 until the 17 at 06:00 UTC


162002Z 1621/1706 VRB05KT 9999 FEW010 BKN030
PROB30
TEMPO 1621/1706 8000 SHRA BKN015
ATIS : +44 1481 238 957



MET'MAP, your aeronautical weather chart ! - Copyright ORBIFLY December 2007 - Disclaimer

ORBIFLY MET'MAP TEAM :

Programming & Development : Alexandra Zaïnal
Concept & Development : Baudouin d'Aumeries
Co-Development & Prog : Marc-Olivier Méhu
Technical & hardware support : Manuel Goepfert

Contact : metmap@orbifly.com




SOURCES & CREDITS :

   NOAA